createdAt,value
2018-09-03T00:02:12.169Z,10.90
2018-09-03T00:04:41.206Z,10.33
2018-09-03T00:07:09.385Z,11.00
2018-09-03T00:09:40.854Z,10.23
2018-09-03T00:12:09.585Z,9.87
2018-09-03T00:14:37.882Z,9.43
2018-09-03T00:17:06.437Z,9.83
2018-09-03T00:19:35.103Z,9.93
2018-09-03T00:22:03.313Z,9.13
2018-09-03T00:24:32.289Z,8.50
2018-09-03T00:27:00.453Z,9.50
2018-09-03T00:29:28.605Z,10.67
2018-09-03T00:32:02.229Z,10.83
2018-09-03T00:34:35.753Z,13.80
2018-09-03T00:37:09.343Z,12.10
2018-09-03T00:39:43.061Z,12.40
2018-09-03T00:42:16.567Z,13.60
2018-09-03T00:44:49.968Z,12.63
2018-09-03T00:47:18.069Z,12.63
2018-09-03T00:49:46.281Z,11.03
2018-09-03T00:52:14.451Z,14.33
2018-09-03T00:54:42.634Z,14.43
2018-09-03T00:57:10.791Z,13.60
2018-09-03T00:59:38.952Z,15.70
2018-09-03T01:02:07.174Z,14.63
2018-09-03T01:04:35.353Z,17.20
2018-09-03T01:07:03.534Z,16.37
2018-09-03T01:09:31.676Z,17.77
2018-09-03T01:11:59.855Z,17.20
2018-09-03T01:14:28.018Z,17.10
2018-09-03T01:16:56.187Z,17.90
2018-09-03T01:19:24.351Z,14.47
2018-09-03T01:21:52.513Z,15.50
2018-09-03T01:24:20.658Z,17.83
2018-09-03T01:26:48.840Z,17.17
2018-09-03T01:29:17.046Z,17.03
2018-09-03T01:31:45.197Z,15.10
2018-09-03T01:34:13.334Z,14.40
2018-09-03T01:36:41.512Z,14.63
2018-09-03T01:39:09.653Z,15.43
2018-09-03T01:41:37.801Z,13.13
2018-09-03T01:44:06.094Z,14.57
2018-09-03T01:46:34.223Z,16.33
2018-09-03T01:49:02.383Z,15.13
2018-09-03T01:51:30.517Z,15.27
2018-09-03T01:53:58.669Z,18.03
2018-09-03T01:56:26.811Z,16.60
2018-09-03T01:58:54.914Z,16.70
2018-09-03T02:01:23.205Z,18.43
2018-09-03T02:03:51.347Z,17.57
2018-09-03T02:06:19.946Z,17.90
2018-09-03T02:08:48.105Z,18.77
2018-09-03T02:11:16.408Z,16.50
2018-09-03T02:13:44.540Z,15.53
2018-09-03T02:16:12.726Z,16.23
2018-09-03T02:18:40.899Z,16.30
2018-09-03T02:21:09.556Z,15.50
2018-09-03T02:23:38.022Z,14.17
2018-09-03T02:26:06.287Z,16.10
2018-09-03T02:28:34.541Z,14.70
2018-09-03T02:31:02.661Z,15.73
2018-09-03T02:33:30.861Z,18.13
2018-09-03T02:35:59.033Z,16.27
2018-09-03T02:38:27.710Z,16.43
2018-09-03T02:40:55.893Z,16.97
2018-09-03T02:43:24.073Z,16.00
2018-09-03T02:45:52.221Z,14.27
2018-09-03T02:48:20.408Z,14.50
2018-09-03T02:50:48.585Z,16.43
2018-09-03T02:53:16.744Z,15.57
2018-09-03T02:55:44.881Z,13.97
2018-09-03T02:58:12.978Z,13.80
2018-09-03T03:00:41.191Z,15.20
2018-09-03T03:03:09.329Z,14.30
2018-09-03T03:05:37.471Z,14.60
2018-09-03T03:08:06.003Z,13.00
2018-09-03T03:10:35.134Z,12.30
2018-09-03T03:13:03.297Z,13.03
2018-09-03T03:15:31.471Z,10.47
2018-09-03T03:17:59.651Z,15.67
2018-09-03T03:20:27.802Z,16.17
2018-09-03T03:22:55.911Z,14.10
2018-09-03T03:25:24.027Z,13.87
2018-09-03T03:27:52.204Z,14.50
2018-09-03T03:30:20.395Z,17.10
2018-09-03T03:32:48.543Z,14.63
2018-09-03T03:35:16.747Z,15.53
2018-09-03T03:37:46.772Z,18.80
2018-09-03T03:40:15.033Z,15.50
2018-09-03T03:42:43.212Z,16.20
2018-09-03T03:45:11.367Z,15.47
2018-09-03T03:47:39.913Z,13.60
2018-09-03T03:50:08.479Z,13.20
2018-09-03T03:52:36.681Z,11.27
2018-09-03T03:55:05.283Z,11.53
2018-09-03T03:57:33.461Z,11.23
2018-09-03T04:00:01.656Z,11.33
2018-09-03T04:02:29.823Z,10.73
2018-09-03T04:04:57.981Z,11.30
2018-09-03T04:07:26.179Z,14.43
2018-09-03T04:09:54.327Z,12.17
2018-09-03T04:12:22.454Z,12.30
2018-09-03T04:14:51.117Z,13.30
2018-09-03T04:17:19.349Z,13.93
2018-09-03T04:19:52.698Z,11.87
2018-09-03T04:22:20.859Z,12.53
2018-09-03T04:24:49.027Z,12.40
2018-09-03T04:27:17.296Z,12.30
2018-09-03T04:29:45.467Z,11.70
2018-09-03T04:32:13.747Z,12.63
2018-09-03T04:34:41.861Z,12.67
2018-09-03T04:37:10.040Z,12.47
2018-09-03T04:39:38.230Z,13.53
2018-09-03T04:42:06.453Z,12.50
2018-09-03T04:44:34.663Z,13.87
2018-09-03T04:47:02.889Z,15.23
2018-09-03T04:49:31.074Z,15.47
2018-09-03T04:51:59.188Z,18.83
2018-09-03T04:54:27.392Z,15.30
2018-09-03T04:56:55.478Z,15.50
2018-09-03T04:59:23.704Z,17.47
2018-09-03T05:01:53.724Z,14.37
2018-09-03T05:04:21.899Z,16.27
2018-09-03T05:06:50.173Z,16.37
2018-09-03T05:09:18.479Z,16.40
2018-09-03T05:11:46.749Z,18.37
2018-09-03T05:14:15.098Z,17.93
2018-09-03T05:16:43.258Z,20.20
2018-09-03T05:19:11.393Z,19.33
2018-09-03T05:21:39.600Z,18.50
2018-09-03T05:24:07.731Z,18.87
2018-09-03T05:26:35.925Z,18.37
2018-09-03T05:29:04.221Z,18.40
2018-09-03T05:31:32.450Z,18.80
2018-09-03T05:34:00.673Z,16.63
2018-09-03T05:36:28.866Z,17.73
2018-09-03T05:38:57.312Z,17.40
2018-09-03T05:41:25.505Z,18.53
2018-09-03T05:43:53.720Z,18.30
2018-09-03T05:46:23.417Z,18.50
2018-09-03T05:48:52.124Z,17.20
2018-09-03T05:51:20.325Z,18.20
2018-09-03T05:53:48.527Z,18.60
2018-09-03T05:56:16.671Z,16.73
2018-09-03T05:58:44.823Z,17.40
2018-09-03T06:01:12.923Z,17.67
2018-09-03T06:03:41.947Z,16.43
2018-09-03T06:06:10.143Z,15.97
2018-09-03T06:08:38.275Z,15.77
2018-09-03T06:11:06.595Z,14.70
2018-09-03T06:13:34.729Z,14.97
2018-09-03T06:16:03.039Z,19.03
2018-09-03T06:18:31.247Z,19.67
2018-09-03T06:20:59.416Z,18.87
2018-09-03T06:23:27.601Z,19.10
2018-09-03T06:25:55.804Z,18.50
2018-09-03T06:28:24.039Z,19.47
2018-09-03T06:30:52.235Z,18.80
2018-09-03T06:33:20.429Z,16.60
2018-09-03T06:35:48.680Z,16.73
2018-09-03T06:38:17.618Z,16.40
2018-09-03T06:40:45.770Z,18.50
2018-09-03T06:43:13.998Z,16.47
2018-09-03T06:45:42.199Z,17.23
2018-09-03T06:48:10.356Z,19.57
2018-09-03T06:50:38.529Z,17.80
2018-09-03T06:53:06.693Z,19.90
2018-09-03T06:55:34.794Z,19.30
2018-09-03T06:58:02.931Z,18.57
2018-09-03T07:00:31.091Z,17.77
2018-09-03T07:02:59.326Z,17.83
2018-09-03T07:05:27.454Z,19.23
2018-09-03T07:07:55.586Z,19.57
2018-09-03T07:10:23.873Z,19.40
2018-09-03T07:12:52.007Z,20.00
2018-09-03T07:15:20.791Z,19.80
2018-09-03T07:17:49.037Z,20.03
2018-09-03T07:20:17.206Z,21.30
2018-09-03T07:22:45.464Z,20.03
2018-09-03T07:25:13.606Z,20.13
2018-09-03T07:27:41.859Z,18.80
2018-09-03T07:30:10.057Z,19.87
2018-09-03T07:32:38.229Z,18.80
2018-09-03T07:35:06.409Z,17.63
2018-09-03T07:37:34.535Z,18.27
2018-09-03T07:40:03.035Z,17.73
2018-09-03T07:42:46.231Z,16.57
2018-09-03T07:45:14.397Z,17.13
2018-09-03T07:47:42.614Z,16.40
2018-09-03T07:50:10.754Z,18.20
2018-09-03T07:52:39.077Z,18.37
2018-09-03T07:55:07.259Z,17.90
2018-09-03T07:57:35.389Z,18.03
2018-09-03T08:00:03.858Z,19.03
2018-09-03T08:02:32.726Z,17.13
2018-09-03T08:05:00.878Z,18.37
2018-09-03T08:07:29.098Z,18.90
2018-09-03T08:09:57.287Z,18.27
2018-09-03T08:12:25.495Z,17.63
2018-09-03T08:14:53.727Z,17.90
2018-09-03T08:17:21.907Z,18.97
2018-09-03T08:19:50.008Z,19.10
2018-09-03T08:22:18.106Z,19.00
2018-09-03T08:24:47.171Z,17.67
2018-09-03T08:27:15.367Z,19.47
2018-09-03T08:29:43.493Z,19.93
2018-09-03T08:32:11.666Z,18.90
2018-09-03T08:34:39.760Z,19.03
2018-09-03T08:37:07.937Z,18.33
2018-09-03T08:39:36.073Z,17.93
2018-09-03T08:42:04.298Z,17.73
2018-09-03T08:44:32.412Z,17.87
2018-09-03T08:47:00.538Z,17.20
2018-09-03T08:49:28.847Z,15.10
2018-09-03T08:51:56.993Z,16.07
2018-09-03T08:54:25.126Z,14.43
2018-09-03T08:56:53.298Z,15.27
2018-09-03T08:59:22.423Z,16.70
2018-09-03T09:01:50.565Z,17.93
2018-09-03T09:04:18.702Z,16.83
2018-09-03T09:06:46.843Z,16.20
2018-09-03T09:09:14.979Z,18.13
2018-09-03T09:11:43.206Z,17.60
2018-09-03T09:14:11.262Z,16.80
2018-09-03T09:16:39.405Z,16.83
2018-09-03T09:19:07.642Z,18.20
2018-09-03T09:21:35.897Z,16.20
2018-09-03T09:24:04.091Z,16.10
2018-09-03T09:26:32.222Z,15.20
2018-09-03T09:29:00.377Z,14.53
2018-09-03T09:31:28.550Z,14.47
2018-09-03T09:33:56.749Z,13.80
2018-09-03T09:36:24.897Z,13.03
2018-09-03T09:38:53.056Z,11.73
2018-09-03T09:41:21.306Z,13.20
2018-09-03T09:43:49.477Z,11.37
2018-09-03T09:46:17.650Z,10.77
2018-09-03T09:48:45.866Z,10.73
2018-09-03T09:51:14.020Z,11.50
2018-09-03T09:53:42.147Z,11.40
2018-09-03T09:56:10.505Z,10.73
2018-09-03T09:58:38.685Z,11.63
2018-09-03T10:01:12.285Z,12.00
2018-09-03T10:03:40.455Z,14.60
2018-09-03T10:06:08.592Z,14.50
2018-09-03T10:08:36.740Z,14.40
2018-09-03T10:11:04.873Z,12.23
2018-09-03T10:13:33.055Z,12.60
2018-09-03T10:16:01.202Z,11.73
2018-09-03T10:18:29.339Z,11.00
2018-09-03T10:20:57.535Z,11.23
2018-09-03T10:23:25.749Z,10.80
2018-09-03T10:25:53.930Z,9.90
2018-09-03T10:28:22.080Z,9.73
2018-09-03T10:30:50.233Z,9.97
2018-09-03T10:33:18.386Z,8.70
2018-09-03T10:35:46.559Z,9.10
2018-09-03T10:38:14.808Z,8.77
2018-09-03T10:40:42.886Z,8.90
2018-09-03T10:43:11.037Z,8.97
2018-09-03T10:45:47.034Z,8.70
2018-09-03T10:48:16.559Z,8.40
2018-09-03T10:50:45.027Z,8.70
2018-09-03T10:53:13.208Z,8.47
2018-09-03T10:55:41.730Z,8.37
2018-09-03T10:58:10.845Z,8.50
2018-09-03T11:00:38.956Z,8.43
2018-09-03T11:03:07.315Z,7.73
2018-09-03T11:05:35.494Z,7.30
2018-09-03T11:08:03.689Z,7.37
2018-09-03T11:10:31.878Z,7.20
2018-09-03T11:13:00.093Z,7.40
2018-09-03T11:15:28.218Z,7.37
2018-09-03T11:17:56.361Z,7.93
2018-09-03T11:20:31.073Z,8.30
2018-09-03T11:22:59.707Z,8.47
2018-09-03T11:25:30.004Z,8.03
2018-09-03T11:27:58.228Z,8.13
2018-09-03T11:30:27.008Z,7.47
2018-09-03T11:32:59.303Z,7.57
2018-09-03T11:35:27.423Z,7.60
2018-09-03T11:37:55.652Z,9.03
2018-09-03T11:40:24.718Z,8.97
2018-09-03T11:42:52.890Z,9.30
2018-09-03T11:45:22.149Z,8.63
2018-09-03T11:47:50.328Z,8.73
2018-09-03T11:50:19.194Z,8.20
2018-09-03T11:52:47.393Z,8.50
2018-09-03T11:55:15.808Z,8.40
2018-09-03T11:57:44.089Z,7.73
2018-09-03T12:00:15.997Z,8.13
2018-09-03T12:02:44.142Z,8.10
2018-09-03T12:05:12.277Z,9.00
2018-09-03T12:07:40.553Z,9.30
2018-09-03T12:10:08.702Z,9.90
2018-09-03T12:12:36.849Z,9.30
2018-09-03T12:15:11.132Z,10.23
2018-09-03T12:17:39.529Z,10.43
2018-09-03T12:20:07.744Z,10.67
2018-09-03T12:22:35.936Z,10.47
2018-09-03T12:25:04.165Z,10.20
2018-09-03T12:27:32.570Z,10.20
2018-09-03T12:30:00.758Z,9.20
2018-09-03T12:32:28.984Z,9.40
2018-09-03T12:34:57.212Z,10.23
2018-09-03T12:37:25.441Z,10.77
2018-09-03T12:39:53.709Z,10.40
2018-09-03T12:42:21.892Z,10.07
2018-09-03T12:44:50.024Z,9.70
2018-09-03T12:47:18.167Z,10.73
2018-09-03T12:49:46.906Z,10.73
2018-09-03T12:52:15.105Z,10.30
2018-09-03T12:54:43.211Z,10.17
2018-09-03T12:57:11.400Z,10.13
2018-09-03T12:59:39.589Z,9.47
2018-09-03T13:02:08.408Z,9.43
2018-09-03T13:04:36.576Z,9.10
2018-09-03T13:07:04.845Z,9.10
2018-09-03T13:09:32.933Z,9.07
2018-09-03T13:12:01.137Z,9.87
2018-09-03T13:14:29.299Z,10.77
2018-09-03T13:16:57.536Z,10.33
2018-09-03T13:19:25.748Z,9.93
2018-09-03T13:21:53.971Z,9.87
2018-09-03T13:24:22.200Z,10.27
2018-09-03T13:26:50.420Z,10.60
2018-09-03T13:29:18.658Z,9.50
2018-09-03T13:31:46.820Z,10.60
2018-09-03T13:34:15.042Z,11.23
2018-09-03T13:36:43.196Z,12.83
2018-09-03T13:39:11.626Z,13.53
2018-09-03T13:41:39.806Z,13.83
2018-09-03T13:44:08.359Z,13.63
2018-09-03T13:46:36.575Z,13.47
2018-09-03T13:49:04.808Z,13.37
2018-09-03T13:51:33.019Z,14.00
2018-09-03T13:54:01.318Z,14.13
2018-09-03T13:56:29.589Z,13.20
2018-09-03T13:58:57.728Z,13.43
2018-09-03T14:01:25.913Z,13.23
2018-09-03T14:03:54.119Z,12.53
2018-09-03T14:06:22.399Z,12.53
2018-09-03T14:08:50.535Z,12.57
2018-09-03T14:11:18.742Z,11.83
2018-09-03T14:13:46.964Z,10.97
2018-09-03T14:16:15.139Z,10.10
2018-09-03T14:18:43.298Z,9.63
2018-09-03T14:21:11.587Z,9.50
2018-09-03T14:23:39.955Z,10.57
2018-09-03T14:26:08.115Z,9.87
2018-09-03T14:28:36.332Z,10.37
2018-09-03T14:31:04.457Z,9.73
2018-09-03T14:33:32.600Z,10.40
2018-09-03T14:36:00.807Z,10.13
2018-09-03T14:38:29.006Z,10.20
2018-09-03T14:40:57.233Z,8.77
2018-09-03T14:43:25.375Z,10.70
2018-09-03T14:45:53.529Z,10.87
2018-09-03T14:48:21.842Z,11.20
2018-09-03T14:50:49.963Z,10.80
2018-09-03T14:53:18.129Z,11.70
2018-09-03T14:55:46.243Z,11.83
2018-09-03T14:58:14.415Z,10.73
2018-09-03T15:00:42.548Z,12.80
2018-09-03T15:03:10.753Z,11.40
2018-09-03T15:05:38.921Z,11.17
2018-09-03T15:08:07.160Z,11.00
2018-09-03T15:10:35.365Z,10.93
2018-09-03T15:13:03.567Z,9.87
2018-09-03T15:15:31.737Z,10.10
2018-09-03T15:18:00.708Z,10.33
2018-09-03T15:20:28.861Z,10.53
2018-09-03T15:22:56.995Z,10.87
2018-09-03T15:25:25.147Z,10.93
2018-09-03T15:27:53.287Z,10.67
2018-09-03T15:30:21.473Z,11.07
2018-09-03T15:32:49.670Z,11.07
2018-09-03T15:35:18.145Z,10.33
2018-09-03T15:37:46.247Z,11.70
2018-09-03T15:40:14.436Z,10.13
2018-09-03T15:42:42.621Z,10.80
2018-09-03T15:45:10.761Z,9.77
2018-09-03T15:47:38.965Z,10.77
2018-09-03T15:50:07.109Z,10.33
2018-09-03T15:52:35.825Z,11.20
2018-09-03T15:55:04.331Z,10.73
2018-09-03T15:57:32.507Z,11.43
2018-09-03T16:00:00.747Z,11.40
2018-09-03T16:02:28.952Z,12.33
2018-09-03T16:04:57.122Z,12.53
2018-09-03T16:07:25.301Z,12.60
2018-09-03T16:09:53.456Z,12.47
2018-09-03T16:12:21.635Z,12.67
2018-09-03T16:14:49.875Z,11.80
2018-09-03T16:17:18.019Z,12.03
2018-09-03T16:19:46.183Z,12.53
2018-09-03T16:22:14.379Z,11.60
2018-09-03T16:24:42.627Z,12.47
2018-09-03T16:27:10.880Z,12.50
2018-09-03T16:29:39.063Z,13.30
2018-09-03T16:32:07.223Z,11.90
2018-09-03T16:34:35.405Z,11.97
2018-09-03T16:37:03.620Z,12.47
2018-09-03T16:39:31.762Z,12.50
2018-09-03T16:41:59.954Z,13.17
2018-09-03T16:44:28.061Z,12.57
2018-09-03T16:46:56.176Z,12.00
2018-09-03T16:49:24.323Z,13.13
2018-09-03T16:51:52.492Z,12.27
2018-09-03T16:54:20.629Z,12.47
2018-09-03T16:56:48.835Z,12.10
2018-09-03T16:59:17.686Z,13.87
2018-09-03T17:01:45.927Z,13.57
2018-09-03T17:04:14.149Z,13.50
2018-09-03T17:06:42.777Z,13.80
2018-09-03T17:09:11.037Z,14.50
2018-09-03T17:11:39.319Z,15.27
2018-09-03T17:14:07.491Z,15.47
2018-09-03T17:16:35.637Z,14.13
2018-09-03T17:19:03.901Z,14.70
2018-09-03T17:21:32.271Z,12.40
2018-09-03T17:24:00.448Z,15.07
2018-09-03T17:26:28.634Z,14.73
2018-09-03T17:28:56.948Z,14.60
2018-09-03T17:31:25.073Z,15.23
2018-09-03T17:33:53.514Z,14.63
2018-09-03T17:36:21.636Z,14.77
2018-09-03T17:38:49.834Z,15.40
2018-09-03T17:41:18.035Z,16.40
2018-09-03T17:43:46.221Z,13.83
2018-09-03T17:46:14.398Z,15.93
2018-09-03T17:48:42.686Z,16.07
2018-09-03T17:51:10.862Z,15.57
2018-09-03T17:53:39.429Z,16.67
2018-09-03T17:56:07.765Z,16.03
2018-09-03T17:58:36.038Z,16.43
2018-09-03T18:01:04.581Z,16.13
2018-09-03T18:03:32.856Z,15.90
2018-09-03T18:06:01.104Z,16.30
2018-09-03T18:08:29.302Z,15.87
2018-09-03T18:10:57.882Z,16.93
2018-09-03T18:13:26.167Z,15.50
2018-09-03T18:15:54.361Z,14.33
2018-09-03T18:18:22.580Z,16.60
2018-09-03T18:20:50.803Z,16.33
2018-09-03T18:23:19.000Z,17.07
2018-09-03T18:25:47.178Z,17.57
2018-09-03T18:28:15.373Z,17.70
2018-09-03T18:30:43.589Z,17.10
2018-09-03T18:33:12.041Z,17.40
2018-09-03T18:35:40.248Z,16.87
2018-09-03T18:38:08.891Z,17.00
2018-09-03T18:40:37.118Z,17.90
2018-09-03T18:43:05.313Z,18.77
2018-09-03T18:45:33.455Z,17.23
2018-09-03T18:48:01.657Z,18.97
2018-09-03T18:50:30.115Z,17.23
2018-09-03T18:52:58.535Z,18.87
2018-09-03T18:55:26.720Z,18.73
2018-09-03T18:57:54.968Z,17.93
2018-09-03T19:00:23.224Z,17.87
2018-09-03T19:02:51.726Z,18.30
2018-09-03T19:05:19.965Z,18.20
2018-09-03T19:07:48.169Z,18.63
2018-09-03T19:10:16.489Z,16.20
2018-09-03T19:12:44.701Z,18.73
2018-09-03T19:15:12.910Z,17.47
2018-09-03T19:17:41.086Z,17.27
2018-09-03T19:20:09.335Z,18.00
2018-09-03T19:22:37.586Z,16.03
2018-09-03T19:25:05.852Z,17.17
2018-09-03T19:27:34.133Z,18.73
2018-09-03T19:30:02.907Z,18.10
2018-09-03T19:32:31.089Z,18.07
2018-09-03T19:34:59.376Z,18.33
2018-09-03T19:37:27.619Z,18.00
2018-09-03T19:39:55.872Z,18.70
2018-09-03T19:42:24.059Z,17.83
2018-09-03T19:44:52.346Z,18.17
2018-09-03T19:47:20.559Z,18.67
2018-09-03T19:49:48.809Z,17.53
2018-09-03T19:52:16.982Z,17.53
2018-09-03T19:54:45.237Z,18.37
2018-09-03T19:57:13.355Z,18.10
2018-09-03T19:59:42.509Z,18.67
2018-09-03T20:02:10.659Z,18.33
2018-09-03T20:04:38.856Z,19.57
2018-09-03T20:07:07.071Z,18.13
2018-09-03T20:09:35.244Z,17.40
2018-09-03T20:12:03.510Z,18.97
2018-09-03T20:14:31.769Z,18.33
2018-09-03T20:16:59.948Z,17.87
2018-09-03T20:19:28.156Z,18.00
2018-09-03T20:21:56.333Z,17.63
2018-09-03T20:24:24.717Z,16.97
2018-09-03T20:26:52.936Z,16.40
2018-09-03T20:29:21.170Z,17.50
2018-09-03T20:31:49.327Z,18.17
2018-09-03T20:34:17.565Z,16.50
2018-09-03T20:36:45.732Z,17.53
2018-09-03T20:39:13.974Z,17.17
2018-09-03T20:41:42.998Z,18.40
2018-09-03T20:44:11.285Z,17.07
2018-09-03T20:46:39.553Z,16.70
2018-09-03T20:49:07.705Z,19.47
2018-09-03T20:51:35.979Z,17.80
2018-09-03T20:54:04.129Z,17.97
2018-09-03T20:56:32.514Z,18.80
2018-09-03T20:59:00.631Z,20.63
2018-09-03T21:01:28.928Z,19.60
2018-09-03T21:03:57.046Z,18.03
2018-09-03T21:06:25.304Z,18.53
2018-09-03T21:08:53.448Z,19.23
2018-09-03T21:11:21.771Z,20.90
2018-09-03T21:13:49.939Z,20.87
2018-09-03T21:16:18.086Z,20.57
2018-09-03T21:18:46.269Z,21.80
2018-09-03T21:21:14.430Z,21.53
2018-09-03T21:23:42.609Z,20.03
2018-09-03T21:26:10.796Z,20.50
2018-09-03T21:28:39.043Z,19.73
2018-09-03T21:31:07.164Z,19.30
2018-09-03T21:33:35.346Z,19.67
2018-09-03T21:36:03.558Z,18.23
2018-09-03T21:38:31.746Z,18.43
2018-09-03T21:40:59.876Z,19.10
2018-09-03T21:43:28.051Z,19.60
2018-09-03T21:45:56.211Z,18.17
2018-09-03T21:48:24.468Z,19.07
2018-09-03T21:50:53.136Z,19.27
2018-09-03T21:53:21.357Z,20.13
2018-09-03T21:55:49.534Z,18.70
2018-09-03T21:58:17.717Z,18.70
2018-09-03T22:00:45.949Z,19.47
2018-09-03T22:03:14.085Z,23.17
2018-09-03T22:05:42.258Z,21.63
2018-09-03T22:08:10.471Z,20.53
2018-09-03T22:10:38.686Z,21.70
2018-09-03T22:13:06.772Z,19.87
2018-09-03T22:15:34.952Z,21.67
2018-09-03T22:18:03.096Z,20.13
2018-09-03T22:20:31.340Z,20.67
2018-09-03T22:22:59.506Z,20.03
2018-09-03T22:25:27.732Z,19.47
2018-09-03T22:27:55.911Z,19.40
2018-09-03T22:30:24.145Z,20.77
2018-09-03T22:32:52.319Z,22.27
2018-09-03T22:35:20.462Z,21.20
2018-09-03T22:37:48.632Z,21.43
2018-09-03T22:40:16.807Z,21.83
2018-09-03T22:42:44.963Z,22.43
2018-09-03T22:45:13.130Z,22.83
2018-09-03T22:47:41.281Z,21.80
2018-09-03T22:50:09.539Z,23.67
2018-09-03T22:52:37.721Z,21.20
2018-09-03T22:55:05.926Z,23.13
2018-09-03T22:57:34.066Z,20.97
2018-09-03T23:00:02.243Z,22.07
2018-09-03T23:02:34.061Z,21.37
2018-09-03T23:05:02.170Z,19.93
2018-09-03T23:07:30.303Z,19.60
2018-09-03T23:09:58.453Z,21.03
2018-09-03T23:12:26.618Z,22.17
2018-09-03T23:14:54.968Z,19.87
2018-09-03T23:17:23.124Z,19.83
2018-09-03T23:19:51.238Z,22.57
2018-09-03T23:22:19.395Z,25.77
2018-09-03T23:24:47.613Z,24.13
2018-09-03T23:27:15.781Z,23.37
2018-09-03T23:29:43.914Z,24.07
2018-09-03T23:32:12.039Z,22.47
2018-09-03T23:34:40.224Z,23.40
2018-09-03T23:37:08.374Z,21.90
2018-09-03T23:39:36.573Z,23.40
2018-09-03T23:42:04.732Z,23.20
2018-09-03T23:44:32.932Z,23.43
2018-09-03T23:47:01.107Z,22.93
2018-09-03T23:49:29.236Z,24.03
2018-09-03T23:51:57.390Z,25.77
2018-09-03T23:54:25.591Z,21.83
2018-09-03T23:56:53.904Z,23.53
2018-09-03T23:59:22.126Z,23.30
